Time;durP1;ratioP1;P1;durP2;ratioP2;P2;SDS_P1;SDS_P2;PMS_P1;PMS_P2;Temp;Humidity;BMP_temperature;BMP_pressure;BME280_temperature;BME280_humidity;BME280_pressure;Samples;Min_cycle;Max_cycle;Signal;HPM_P1;HPM_P2
2022/09/25 00:01:00;;;;;;;9.07;1.35;;;;;;;8.53;100.00;98928.94;4785663;29;20122;-96
2022/09/25 00:03:27;;;;;;;7.28;1.20;;;;;;;8.51;100.00;98921.13;4789807;29;20031;-96
2022/09/25 00:06:02;;;;;;;6.07;1.42;;;;;;;8.60;100.00;98924.59;4787255;29;20035;-94
2022/09/25 00:08:32;;;;;;;4.47;1.10;;;;;;;8.56;100.00;98909.88;4792764;29;20035;-96
2022/09/25 00:11:09;;;;;;;7.75;1.20;;;;;;;8.47;100.00;98918.53;4802365;29;20031;-96
2022/09/25 00:13:35;;;;;;;3.85;1.00;;;;;;;8.35;100.00;98921.91;4789233;29;20059;-96
2022/09/25 00:16:01;;;;;;;4.50;0.88;;;;;;;8.27;100.00;98926.25;4791943;29;20039;-96
2022/09/25 00:21:13;;;;;;;8.15;1.42;;;;;;;8.27;100.00;98921.06;4793339;29;20038;-96
2022/09/25 00:23:43;;;;;;;6.10;1.15;;;;;;;8.26;100.00;98924.50;4801777;29;20074;-95
2022/09/25 00:26:08;;;;;;;7.97;1.27;;;;;;;8.02;100.00;98923.56;4783027;29;20035;-94
2022/09/25 00:28:35;;;;;;;5.75;1.10;;;;;;;8.01;100.00;98917.47;4784407;30;20038;-96
2022/09/25 00:31:13;;;;;;;5.45;1.17;;;;;;;7.98;100.00;98927.88;4789277;29;20096;-96
2022/09/25 00:33:39;;;;;;;6.40;1.13;;;;;;;7.86;100.00;98928.69;4783429;29;20054;-95
2022/09/25 00:36:07;;;;;;;6.82;1.17;;;;;;;7.69;100.00;98919.94;4790913;29;20051;-95
2022/09/25 00:38:35;;;;;;;5.60;1.10;;;;;;;7.71;100.00;98931.22;4801544;29;20019;-95
2022/09/25 00:41:05;;;;;;;6.45;1.02;;;;;;;7.51;100.00;98926.78;4801697;29;20064;-95
2022/09/25 00:43:43;;;;;;;8.13;1.10;;;;;;;7.47;100.00;98932.81;4799482;29;20142;-96
2022/09/25 00:46:25;;;;;;;5.70;1.23;;;;;;;7.44;100.00;98932.78;4798900;30;20043;-95
2022/09/25 00:49:00;;;;;;;5.00;1.10;;;;;;;7.44;100.00;98930.19;4801084;29;20077;-95
2022/09/25 00:51:41;;;;;;;7.50;1.00;;;;;;;7.40;100.00;98931.00;4793555;29;20148;-95
2022/09/25 00:54:13;;;;;;;4.10;0.80;;;;;;;7.51;100.00;98931.97;4790794;29;20043;-95
2022/09/25 00:56:50;;;;;;;5.93;1.10;;;;;;;7.42;100.00;98931.91;4792505;29;20047;-96
2022/09/25 00:59:20;;;;;;;6.57;1.08;;;;;;;7.37;100.00;98925.81;4787967;29;20032;-95
2022/09/25 01:01:46;;;;;;;9.15;1.00;;;;;;;7.27;100.00;98931.81;4790611;30;20050;-96
2022/09/25 01:04:12;;;;;;;4.30;0.95;;;;;;;7.25;100.00;98933.50;4794626;29;20031;-95
2022/09/25 01:06:40;;;;;;;6.70;1.02;;;;;;;7.24;100.00;98919.69;4792682;29;20043;-95
2022/09/25 01:09:06;;;;;;;5.72;0.90;;;;;;;7.30;100.00;98921.44;4803528;29;20118;-96
2022/09/25 01:11:45;;;;;;;3.42;0.90;;;;;;;7.09;100.00;98925.63;4792672;29;20058;-95
2022/09/25 01:14:13;;;;;;;5.50;0.90;;;;;;;7.12;100.00;98927.38;4790302;29;20035;-96
2022/09/25 01:17:06;;;;;;;5.40;1.00;;;;;;;7.06;100.00;98932.53;4802186;29;20147;-96
2022/09/25 01:20:02;;;;;;;4.97;0.75;;;;;;;6.95;100.00;98929.84;4808667;29;20515;-95
2022/09/25 01:22:46;;;;;;;5.40;0.90;;;;;;;7.00;100.00;98925.53;4801857;29;20055;-96
2022/09/25 01:25:46;;;;;;;4.70;0.75;;;;;;;6.81;100.00;98927.13;4793604;29;20035;-95
2022/09/25 01:28:39;;;;;;;6.20;0.73;;;;;;;6.92;100.00;98909.94;4789950;29;20034;-95
2022/09/25 01:31:15;;;;;;;5.07;1.10;;;;;;;6.93;100.00;98915.97;4793802;29;20080;-96
2022/09/25 01:33:47;;;;;;;3.50;0.80;;;;;;;6.95;100.00;98919.47;4787414;29;20053;-95
2022/09/25 01:36:32;;;;;;;4.72;0.88;;;;;;;6.95;100.00;98920.31;4796178;29;20042;-95
2022/09/25 01:39:21;;;;;;;4.35;1.10;;;;;;;7.12;100.00;98922.19;4795460;29;20072;-95
2022/09/25 01:41:55;;;;;;;4.22;0.88;;;;;;;6.92;100.00;98922.03;4790106;29;20037;-96
2022/09/25 01:44:29;;;;;;;4.30;0.70;;;;;;;6.89;100.00;98914.22;4805253;29;20049;-93
2022/09/25 01:47:09;;;;;;;6.45;1.02;;;;;;;7.05;100.00;98915.22;4795487;29;20039;-93
2022/09/25 01:49:41;;;;;;;5.07;0.90;;;;;;;6.79;100.00;98908.09;4815192;29;20122;-95
2022/09/25 01:52:24;;;;;;;3.20;0.63;;;;;;;6.84;100.00;98909.84;4802559;29;20061;-93
2022/09/25 01:55:03;;;;;;;4.47;1.00;;;;;;;7.01;100.00;98909.13;4804073;29;20035;-93
2022/09/25 01:57:38;;;;;;;3.85;0.77;;;;;;;6.91;100.00;98907.34;4800561;29;20037;-95
2022/09/25 02:00:10;;;;;;;4.30;0.85;;;;;;;6.89;100.00;98904.72;4791380;29;20134;-94
2022/09/25 02:02:42;;;;;;;6.40;1.00;;;;;;;6.93;100.00;98901.31;4790871;29;20397;-94
2022/09/25 02:05:16;;;;;;;5.93;0.90;;;;;;;7.04;100.00;98901.38;4783890;29;20290;-94
2022/09/25 02:07:46;;;;;;;9.68;0.85;;;;;;;7.04;100.00;98888.41;4787928;29;20038;-94
2022/09/25 02:10:28;;;;;;;3.63;0.70;;;;;;;7.26;100.00;98894.59;4796899;29;20047;-94
2022/09/25 02:13:00;;;;;;;5.05;1.02;;;;;;;7.18;100.00;98893.69;4793681;29;20035;-94
2022/09/25 02:15:32;;;;;;;3.63;0.90;;;;;;;7.34;100.00;98889.47;4811755;29;20027;-93
2022/09/25 02:20:58;;;;;;;3.13;0.70;;;;;;;7.28;100.00;98884.22;4812283;29;20047;-94
2022/09/25 02:23:38;;;;;;;2.60;0.80;;;;;;;7.38;100.00;98878.25;4812684;29;20065;-96
2022/09/25 02:26:07;;;;;;;6.15;0.85;;;;;;;7.40;100.00;98880.88;4800939;29;20035;-94
2022/09/25 02:28:34;;;;;;;5.22;0.77;;;;;;;7.64;100.00;98890.50;4796373;29;20051;-94
2022/09/25 02:31:03;;;;;;;5.53;0.80;;;;;;;7.70;100.00;98890.53;4792267;29;20102;-96
2022/09/25 02:33:30;;;;;;;5.13;0.70;;;;;;;7.85;100.00;98885.41;4807941;29;20043;-95
2022/09/25 02:36:00;;;;;;;6.45;0.80;;;;;;;7.99;100.00;98882.00;4799481;29;20031;-95
2022/09/25 02:38:32;;;;;;;7.95;0.90;;;;;;;7.85;100.00;98864.63;4788447;29;20031;-95
2022/09/25 02:41:16;;;;;;;3.08;0.70;;;;;;;7.86;100.00;98863.78;4786117;29;20099;-95
2022/09/25 02:43:59;;;;;;;3.38;0.38;;;;;;;8.18;100.00;98865.59;4790504;29;20038;-96
2022/09/25 02:46:47;;;;;;;3.47;0.68;;;;;;;8.32;100.00;98869.94;4789690;29;20034;-96
2022/09/25 02:49:32;;;;;;;2.72;0.60;;;;;;;8.36;100.00;98882.09;4784616;29;20066;-96
2022/09/25 02:52:10;;;;;;;3.22;0.70;;;;;;;8.38;100.00;98870.84;4789588;29;20034;-96
2022/09/25 02:54:52;;;;;;;2.25;0.52;;;;;;;8.39;100.00;98871.69;4794019;29;20039;-94
2022/09/25 02:58:06;;;;;;;2.83;0.65;;;;;;;8.29;100.00;98875.16;4818724;29;20116;-96
2022/09/25 03:00:47;;;;;;;3.30;0.60;;;;;;;8.28;100.00;98870.81;4788553;29;20396;-96
2022/09/25 03:03:15;;;;;;;5.03;0.68;;;;;;;8.10;100.00;98862.13;4789798;29;20043;-94
2022/09/25 03:05:41;;;;;;;2.85;0.60;;;;;;;8.24;100.00;98867.34;4802404;29;20041;-95
2022/09/25 03:10:52;;;;;;;4.82;0.70;;;;;;;8.19;100.00;98861.28;4810560;29;20070;-96
2022/09/25 03:13:19;;;;;;;3.72;0.52;;;;;;;8.19;100.00;98853.47;4787492;29;20077;-96
2022/09/25 03:15:50;;;;;;;4.07;0.70;;;;;;;8.22;100.00;98853.47;4793098;29;20030;-96
2022/09/25 03:18:17;;;;;;;3.03;0.50;;;;;;;8.35;100.00;98857.84;4789738;29;20027;-95
2022/09/25 03:20:43;;;;;;;4.28;0.60;;;;;;;8.20;100.00;98850.88;4793649;29;20077;-96
2022/09/25 03:23:10;;;;;;;2.30;0.50;;;;;;;8.19;100.00;98837.88;4790101;29;20055;-96
2022/09/25 03:25:36;;;;;;;4.40;0.63;;;;;;;8.27;100.00;98843.13;4790045;29;20118;-96
2022/09/25 03:28:02;;;;;;;3.33;0.60;;;;;;;8.38;100.00;98831.00;4787813;29;20071;-96
2022/09/25 03:30:30;;;;;;;1.80;0.40;;;;;;;8.28;100.00;98850.91;4787233;29;20426;-96
2022/09/25 03:32:56;;;;;;;2.28;0.55;;;;;;;8.43;100.00;98837.03;4790231;29;20036;-96
2022/09/25 03:35:21;;;;;;;3.63;0.70;;;;;;;8.37;100.00;98831.84;4789449;29;20027;-95
2022/09/25 03:37:47;;;;;;;4.00;0.52;;;;;;;8.25;100.00;98829.22;4789327;29;20086;-96
2022/09/25 03:40:12;;;;;;;2.30;0.70;;;;;;;8.36;100.00;98832.72;4790631;29;20459;-96
2022/09/25 03:42:38;;;;;;;2.58;0.52;;;;;;;8.34;100.00;98829.25;4784134;29;20039;-95
2022/09/25 03:45:05;;;;;;;1.73;0.40;;;;;;;8.44;100.00;98832.72;4788261;30;20036;-95
2022/09/25 03:47:30;;;;;;;2.42;0.55;;;;;;;8.59;100.00;98837.97;4789698;29;20046;-96
2022/09/25 03:49:58;;;;;;;3.88;0.52;;;;;;;8.52;100.00;98831.03;4789558;29;20043;-96
2022/09/25 03:52:42;;;;;;;3.25;0.43;;;;;;;8.58;100.00;98836.22;4786204;29;20035;-96
2022/09/25 03:55:10;;;;;;;2.13;0.50;;;;;;;8.33;100.00;98833.56;4785975;30;20035;-96
2022/09/25 03:57:37;;;;;;;3.55;0.50;;;;;;;8.39;100.00;98835.31;4788261;29;20039;-96
2022/09/25 04:00:05;;;;;;;2.28;0.50;;;;;;;8.53;100.00;98828.44;4787249;29;20051;-96
2022/09/25 04:02:33;;;;;;;4.50;0.50;;;;;;;8.55;100.00;98846.63;4783437;30;20063;-96
2022/09/25 04:04:59;;;;;;;5.70;0.57;;;;;;;8.65;100.00;98847.50;4781281;30;20496;-96
2022/09/25 04:07:26;;;;;;;2.95;0.40;;;;;;;8.48;100.00;98843.16;4784805;29;20035;-96
2022/09/25 04:09:53;;;;;;;2.55;0.57;;;;;;;8.56;100.00;98827.56;4789402;29;20046;-96
2022/09/25 04:12:20;;;;;;;1.75;0.40;;;;;;;8.62;100.00;98839.72;4783896;29;20777;-95
2022/09/25 04:14:58;;;;;;;2.85;0.43;;;;;;;8.62;100.00;98835.34;4788510;29;20104;-95
2022/09/25 04:17:23;;;;;;;3.80;0.50;;;;;;;8.68;100.00;98839.69;4782408;29;20066;-95
2022/09/25 04:19:51;;;;;;;2.45;0.50;;;;;;;8.76;100.00;98835.34;4785317;29;20067;-95
2022/09/25 04:22:16;;;;;;;5.05;0.70;;;;;;;8.76;100.00;98837.97;4789037;29;20027;-96
2022/09/25 04:24:48;;;;;;;3.08;0.55;;;;;;;8.71;100.00;98837.97;4790720;29;20031;-96
2022/09/25 04:27:22;;;;;;;1.35;0.30;;;;;;;8.81;100.00;98836.22;4788391;29;20047;-96
2022/09/25 04:29:48;;;;;;;2.60;0.47;;;;;;;8.85;100.00;98827.56;4787932;29;20360;-96
2022/09/25 04:35:02;;;;;;;2.78;0.60;;;;;;;8.90;100.00;98830.16;4806862;29;20119;-94
2022/09/25 04:37:30;;;;;;;3.30;0.57;;;;;;;8.96;100.00;98829.25;4789984;29;20026;-95
2022/09/25 04:39:57;;;;;;;3.25;0.45;;;;;;;8.93;100.00;98821.47;4788716;29;20042;-96
2022/09/25 04:42:26;;;;;;;1.35;0.40;;;;;;;8.90;100.00;98816.28;4789691;29;20034;-96
2022/09/25 04:45:04;;;;;;;4.35;0.50;;;;;;;8.88;100.00;98819.75;4788670;29;20046;-96
2022/09/25 04:47:38;;;;;;;5.88;0.50;;;;;;;8.82;100.00;98817.16;4806360;29;20118;-96
2022/09/25 04:50:04;;;;;;;3.72;0.63;;;;;;;8.72;100.00;98812.81;4809004;29;20280;-96
2022/09/25 04:52:30;;;;;;;3.22;0.50;;;;;;;8.75;100.00;98811.97;4789546;29;20479;-96
2022/09/25 04:55:03;;;;;;;2.55;0.40;;;;;;;8.67;100.00;98801.56;4792563;29;20035;-96
2022/09/25 04:57:28;;;;;;;2.10;0.47;;;;;;;8.54;100.00;98796.38;4792310;29;20038;-96
2022/09/25 04:59:54;;;;;;;2.28;0.47;;;;;;;8.35;100.00;98802.38;4807173;29;20042;-96
2022/09/25 05:02:19;;;;;;;3.85;0.57;;;;;;;8.42;100.00;98798.94;4788713;29;20062;-95
2022/09/25 05:04:45;;;;;;;3.08;0.60;;;;;;;8.37;100.00;98798.06;4792202;29;20035;-96
2022/09/25 05:07:10;;;;;;;4.28;0.70;;;;;;;8.34;100.00;98785.94;4785306;29;20039;-96
2022/09/25 05:09:36;;;;;;;3.47;0.43;;;;;;;8.36;100.00;98793.72;4792036;29;20026;-96
2022/09/25 05:12:01;;;;;;;3.03;0.70;;;;;;;8.31;100.00;98790.25;4794498;29;20031;-96
2022/09/25 05:14:30;;;;;;;3.08;0.50;;;;;;;8.27;100.00;98786.81;4805195;29;20038;-96
2022/09/25 05:16:56;;;;;;;2.85;0.70;;;;;;;8.37;100.00;98775.53;4801425;29;20049;-96
2022/09/25 05:19:21;;;;;;;3.25;0.75;;;;;;;8.27;100.00;98771.22;4791768;29;20034;-96
2022/09/25 05:21:47;;;;;;;1.50;0.50;;;;;;;8.38;100.00;98782.47;4789613;29;20026;-96
2022/09/25 05:24:12;;;;;;;3.50;0.63;;;;;;;8.39;100.00;98772.94;4799887;29;20049;-96
2022/09/25 05:26:39;;;;;;;3.65;0.60;;;;;;;8.29;100.00;98785.06;4803905;29;20027;-96
2022/09/25 05:29:05;;;;;;;2.08;0.50;;;;;;;8.38;100.00;98777.28;4792527;29;20042;-95
2022/09/25 05:31:31;;;;;;;4.10;0.75;;;;;;;8.38;100.00;98772.06;4787117;29;20046;-96
2022/09/25 05:33:57;;;;;;;3.65;0.70;;;;;;;8.31;100.00;98777.25;4791011;29;20038;-96
2022/09/25 05:36:22;;;;;;;4.30;0.70;;;;;;;8.36;100.00;98775.53;4786450;29;20045;-96
2022/09/25 05:38:48;;;;;;;4.72;0.77;;;;;;;8.38;100.00;98771.22;4788699;29;20122;-96
2022/09/25 05:41:17;;;;;;;3.22;0.77;;;;;;;8.58;100.00;98762.59;4788536;29;20661;-96
2022/09/25 05:43:47;;;;;;;6.03;0.80;;;;;;;8.52;100.00;98772.09;4786711;29;20031;-96
2022/09/25 05:46:23;;;;;;;2.92;0.80;;;;;;;8.55;100.00;98781.63;4803079;29;20026;-96
2022/09/25 05:48:48;;;;;;;4.57;0.75;;;;;;;8.50;100.00;98772.97;4792138;29;20501;-96
2022/09/25 05:51:16;;;;;;;5.50;0.80;;;;;;;8.50;100.00;98773.84;4799897;29;20038;-96
2022/09/25 05:53:42;;;;;;;3.20;0.70;;;;;;;8.67;100.00;98775.56;4785794;29;20029;-96
2022/09/25 05:56:07;;;;;;;2.65;0.60;;;;;;;8.76;100.00;98772.09;4787831;29;20031;-95
2022/09/25 05:58:34;;;;;;;3.70;0.80;;;;;;;8.76;100.00;98775.56;4785350;29;20035;-96
2022/09/25 06:01:03;;;;;;;2.35;0.60;;;;;;;8.85;100.00;98782.47;4783717;29;20065;-96
2022/09/25 06:03:30;;;;;;;1.98;0.52;;;;;;;8.88;100.00;98779.88;4787519;29;20037;-96
2022/09/25 06:05:57;;;;;;;4.63;0.52;;;;;;;8.91;100.00;98772.06;4789943;29;20056;-96
2022/09/25 06:08:22;;;;;;;4.03;0.75;;;;;;;8.91;100.00;98765.97;4783273;29;20043;-96
2022/09/25 06:10:54;;;;;;;3.28;0.68;;;;;;;8.95;100.00;98772.91;4790231;29;20250;-96
2022/09/25 06:13:26;;;;;;;4.03;0.77;;;;;;;9.10;100.00;98775.47;4802834;29;20066;-96
2022/09/25 06:15:55;;;;;;;2.10;0.70;;;;;;;8.96;100.00;98777.25;4807385;29;20031;-96
2022/09/25 06:18:24;;;;;;;3.70;0.80;;;;;;;9.01;100.00;98778.09;4801212;29;20070;-96
2022/09/25 06:20:50;;;;;;;4.57;0.73;;;;;;;9.04;100.00;98775.50;4791261;29;20038;-96
2022/09/25 06:23:16;;;;;;;4.35;0.82;;;;;;;9.08;100.00;98782.44;4789954;29;20061;-96
2022/09/25 06:25:41;;;;;;;4.85;0.85;;;;;;;8.98;100.00;98788.53;4790523;29;20106;-96
2022/09/25 06:28:08;;;;;;;2.70;0.60;;;;;;;8.88;100.00;98778.13;4785766;29;20259;-96
2022/09/25 06:30:35;;;;;;;3.75;0.75;;;;;;;8.85;100.00;98783.34;4800135;29;20448;-96
2022/09/25 06:33:12;;;;;;;2.78;0.70;;;;;;;8.87;100.00;98788.53;4798515;24;20516;-95
2022/09/25 06:35:47;;;;;;;5.53;0.98;;;;;;;8.87;100.00;98776.41;4759619;29;20121;-94
2022/09/25 06:38:15;;;;;;;3.38;0.80;;;;;;;8.99;100.00;98775.53;4748388;30;20028;-92
2022/09/25 06:40:42;;;;;;;6.50;1.17;;;;;;;8.88;100.00;98777.28;4745308;30;20476;-92
2022/09/25 06:43:12;;;;;;;3.60;0.70;;;;;;;8.99;100.00;98770.31;4747790;30;20028;-92
2022/09/25 06:45:38;;;;;;;3.85;0.90;;;;;;;8.95;100.00;98752.97;4767979;30;20066;-92
2022/09/25 06:48:09;;;;;;;4.43;1.02;;;;;;;8.86;100.00;98753.84;4757911;30;20051;-92
2022/09/25 06:50:58;;;;;;;4.50;1.00;;;;;;;8.85;100.00;98766.84;4761458;30;20027;-90
2022/09/25 06:53:26;;;;;;;5.35;1.13;;;;;;;8.97;100.00;98765.97;4763260;30;20043;-92
2022/09/25 06:55:59;;;;;;;6.07;1.50;;;;;;;8.84;100.00;98771.19;4775137;30;20035;-92
2022/09/25 06:58:26;;;;;;;8.07;2.00;;;;;;;8.93;100.00;98774.66;4763554;30;20020;-92
2022/09/25 07:00:56;;;;;;;5.40;1.52;;;;;;;8.91;100.00;98765.97;4749100;30;20048;-92
2022/09/25 07:03:48;;;;;;;6.57;1.42;;;;;;;9.07;100.00;98759.00;4742105;30;20067;-91
2022/09/25 07:06:30;;;;;;;7.13;2.00;;;;;;;9.10;100.00;98762.47;4765597;30;20044;-95
2022/09/25 07:09:05;;;;;;;9.10;1.88;;;;;;;9.16;100.00;98761.59;4758904;30;20044;-95
2022/09/25 07:11:31;;;;;;;6.40;1.80;;;;;;;9.26;100.00;98758.09;4761786;30;20035;-93
2022/09/25 07:13:59;;;;;;;6.85;1.88;;;;;;;9.18;100.00;98765.03;4745973;30;20044;-92
2022/09/25 07:16:33;;;;;;;7.90;1.90;;;;;;;9.39;100.00;98772.78;4746725;30;20043;-94
2022/09/25 07:18:59;;;;;;;7.32;2.00;;;;;;;9.42;100.00;98755.41;4756629;30;20056;-94
2022/09/25 07:21:28;;;;;;;7.80;2.58;;;;;;;9.36;100.00;98756.31;4755829;30;20178;-93
2022/09/25 07:23:54;;;;;;;7.57;1.85;;;;;;;9.40;100.00;98756.28;4748971;30;20043;-94
2022/09/25 07:26:25;;;;;;;7.65;2.08;;;;;;;9.44;100.00;98772.75;4761869;30;20707;-93
2022/09/25 07:29:11;;;;;;;7.32;1.90;;;;;;;9.47;100.00;98762.31;4764779;30;20068;-93
2022/09/25 07:31:45;;;;;;;6.90;1.80;;;;;;;9.61;100.00;98759.66;4755504;30;20508;-94
2022/09/25 07:34:11;;;;;;;5.80;1.80;;;;;;;9.71;100.00;98750.06;4761967;30;20064;-93
2022/09/25 07:36:41;;;;;;;6.25;1.70;;;;;;;9.76;100.00;98761.31;4748123;30;20124;-93
2022/09/25 07:39:12;;;;;;;5.35;1.30;;;;;;;9.81;100.00;98775.19;4747786;30;20032;-93
2022/09/25 07:41:40;;;;;;;8.38;1.80;;;;;;;9.71;100.00;98750.06;4757950;30;20679;-94
2022/09/25 07:44:09;;;;;;;7.85;1.90;;;;;;;9.73;100.00;98761.34;4764737;30;20035;-93
2022/09/25 07:46:45;;;;;;;6.05;1.52;;;;;;;9.73;100.00;98764.81;4764106;30;20155;-94
2022/09/25 08:07:42;;;;;;;6.78;1.77;;;;;;;9.96;100.00;98766.41;4720384;30;20494;-94
2022/09/25 08:10:20;;;;;;;4.75;1.30;;;;;;;9.91;100.00;98753.41;4710997;30;20498;-91
2022/09/25 08:12:48;;;;;;;5.32;1.40;;;;;;;10.20;100.00;98754.06;4711122;30;20040;-94
2022/09/25 08:15:17;;;;;;;6.43;1.58;;;;;;;10.18;100.00;98756.69;4699270;30;20131;-93
2022/09/25 08:27:50;;;;;;;6.53;1.27;;;;;;;10.49;100.00;98751.25;4723268;30;20087;-92
2022/09/25 08:30:16;;;;;;;5.05;1.08;;;;;;;10.73;100.00;98726.69;4713528;30;20132;-94
2022/09/25 08:32:47;;;;;;;4.65;1.20;;;;;;;10.79;100.00;98722.31;4709910;30;20190;-93
2022/09/25 08:35:22;;;;;;;6.90;1.10;;;;;;;10.86;100.00;98729.19;4722807;30;20496;-95
2022/09/25 08:37:48;;;;;;;5.18;1.40;;;;;;;10.98;100.00;98729.06;4745484;30;20040;-94
2022/09/25 08:40:31;;;;;;;4.07;1.10;;;;;;;11.12;100.00;98735.84;4765902;30;20032;-94
2022/09/25 08:43:25;;;;;;;5.80;1.40;;;;;;;11.14;100.00;98728.88;4753505;30;20027;-94
2022/09/25 08:49:19;;;;;;;6.43;1.40;;;;;;;11.30;100.00;98732.16;4763988;30;20063;-93
2022/09/25 08:52:00;;;;;;;5.78;1.35;;;;;;;11.34;100.00;98728.63;4742010;30;20040;-94
2022/09/25 08:54:30;;;;;;;4.65;1.30;;;;;;;11.50;100.00;98722.31;4760204;30;20032;-93
2022/09/25 08:57:35;;;;;;;6.35;1.70;;;;;;;11.32;100.00;98725.19;4762269;30;20103;-93
2022/09/25 09:01:01;;;;;;;6.15;1.80;;;;;;;11.48;100.00;98726.69;4679111;30;20166;-94
2022/09/25 09:04:06;;;;;;;7.22;2.40;;;;;;;11.29;100.00;98702.59;4665630;30;20197;-95
2022/09/25 09:06:57;;;;;;;7.03;2.10;;;;;;;11.36;100.00;98699.00;4689593;30;20113;-96
2022/09/25 09:09:42;;;;;;;;;;;;;;;;;;;;;
2022/09/25 09:12:30;;;;;;;6.25;2.00;;;;;;;11.43;100.00;98697.19;4679261;30;20054;-94
2022/09/25 09:15:28;;;;;;;8.38;2.58;;;;;;;11.61;100.00;98707.34;4678590;30;20629;-95
2022/09/25 09:18:33;;;;;;;5.43;1.60;;;;;;;11.67;100.00;98687.28;4687376;30;20149;-94
2022/09/25 09:21:21;;;;;;;6.85;1.50;;;;;;;11.85;100.00;98697.44;4690401;30;20549;-94
2022/09/25 09:24:30;;;;;;;4.90;1.20;;;;;;;12.02;100.00;98694.59;4674357;30;20538;-96
2022/09/25 09:27:31;;;;;;;5.50;1.13;;;;;;;12.37;100.00;98695.78;4686636;30;20042;-96
2022/09/25 09:31:07;;;;;;;5.32;1.10;;;;;;;12.71;100.00;98686.47;4678900;30;20080;-96
2022/09/25 09:34:43;;;;;;;5.53;1.17;;;;;;;12.92;100.00;98693.03;4816556;24;20059;-96
2022/09/25 09:37:48;;;;;;;4.15;1.20;;;;;;;13.11;100.00;98699.63;4812570;29;20040;-96
2022/09/25 09:40:21;;;;;;;7.95;1.20;;;;;;;12.78;100.00;98667.13;4802504;29;20047;-96
2022/09/25 09:43:00;;;;;;;6.80;1.10;;;;;;;12.93;100.00;98681.63;5017356;24;20048;-96
2022/09/25 09:45:37;;;;;;;3.97;1.15;;;;;;;13.27;100.00;98684.44;4786622;29;20035;-96
2022/09/25 09:48:40;;;;;;;5.63;1.30;;;;;;;13.40;100.00;98678.97;4799501;29;20033;-96
2022/09/25 09:54:00;;;;;;;3.72;1.00;;;;;;;13.68;100.00;98670.50;4791327;30;20104;-96
2022/09/25 09:56:30;;;;;;;6.60;1.40;;;;;;;14.02;100.00;98662.69;4788426;30;20035;-96
2022/09/25 09:59:01;;;;;;;7.70;1.27;;;;;;;13.65;100.00;98679.28;4778148;30;20035;-96
2022/09/25 10:01:45;;;;;;;8.43;1.50;;;;;;;13.76;100.00;98669.41;4773655;30;20048;-96
2022/09/25 10:10:52;;;;;;;8.52;1.75;;;;;;;13.12;100.00;98648.09;4781095;30;20200;-96
2022/09/25 10:13:50;;;;;;;;;;;;;;;13.31;100.00;98649.44;4783406;30;20039;-96
2022/09/25 10:34:30;;;;;;;5.45;1.20;;;;;;;12.82;100.00;98621.69;4802442;29;20102;-95
2022/09/25 10:41:41;;;;;;;;;;;;;;;;;;;;;
2022/09/25 10:44:28;;;;;;;6.43;1.42;;;;;;;12.49;100.00;98610.13;4606746;31;20126;-92
2022/09/25 10:51:05;;;;;;;4.85;1.30;;;;;;;12.57;100.00;98616.94;4633873;30;20097;-90
2022/09/25 10:57:43;;;;;;;4.32;1.10;;;;;;;12.98;100.00;98586.44;4678233;30;20118;-95
2022/09/25 11:00:37;;;;;;;7.68;1.40;;;;;;;13.00;100.00;98601.22;4754699;24;20058;-94
2022/09/25 11:03:05;;;;;;;;;;;;;;;13.03;100.00;98594.19;4780363;29;20063;-96
2022/09/25 11:05:36;;;;;;;4.38;1.10;;;;;;;12.81;100.00;98589.41;4771750;30;20000;-96
2022/09/25 11:08:06;;;;;;;5.05;1.10;;;;;;;12.97;100.00;98591.69;4788877;29;20238;-96
2022/09/25 11:10:46;;;;;;;6.43;1.38;;;;;;;12.79;100.00;98609.50;4762805;30;20035;-96
2022/09/25 11:13:23;;;;;;;7.75;1.50;;;;;;;12.98;100.00;98585.56;4775115;29;20031;-96
2022/09/25 11:15:58;;;;;;;6.88;1.33;;;;;;;12.72;100.00;98594.84;4773745;29;20043;-95
2022/09/25 11:18:44;;;;;;;5.15;1.20;;;;;;;13.30;100.00;98587.50;4798009;29;20492;-96
2022/09/25 11:22:03;;;;;;;6.40;1.30;;;;;;;12.87;100.00;98577.94;4779116;30;20122;-96
2022/09/25 11:24:50;;;;;;;6.72;1.17;;;;;;;13.10;100.00;98576.59;4734137;30;20836;-96
2022/09/25 11:27:34;;;;;;;7.82;1.15;;;;;;;12.80;100.00;98571.13;4745877;30;20072;-96
2022/09/25 11:30:15;;;;;;;10.23;1.40;;;;;;;12.89;100.00;98563.06;4744924;30;20040;-95
2022/09/25 11:32:59;;;;;;;5.95;1.10;;;;;;;12.90;100.00;98559.56;4743073;30;20099;-96
2022/09/25 11:36:19;;;;;;;7.60;1.40;;;;;;;13.04;100.00;98550.53;4762419;24;20048;-93
2022/09/25 11:41:56;;;;;;;9.13;1.25;;;;;;;12.81;100.00;98546.66;4765025;30;20513;-93
2022/09/25 11:44:58;;;;;;;9.27;1.50;;;;;;;12.84;100.00;98546.59;4760274;30;20072;-92
2022/09/25 11:48:01;;;;;;;6.25;1.27;;;;;;;12.83;100.00;98542.25;4747564;30;20036;-92
2022/09/25 11:50:59;;;;;;;7.63;1.60;;;;;;;12.70;100.00;98539.03;4748775;30;20513;-92
2022/09/25 11:53:32;;;;;;;8.68;1.65;;;;;;;12.79;100.00;98541.47;4753994;30;20056;-92
2022/09/25 11:56:17;;;;;;;7.35;1.63;;;;;;;12.60;100.00;98535.75;4770223;30;20044;-93
2022/09/25 11:59:06;;;;;;;8.93;1.60;;;;;;;12.65;100.00;98533.06;4737757;30;20577;-92
2022/09/25 12:01:49;;;;;;;7.63;1.60;;;;;;;12.75;100.00;98537.19;4759521;30;20071;-92
2022/09/25 12:04:18;;;;;;;10.35;1.60;;;;;;;13.12;100.00;98533.78;4729684;30;20128;-92
2022/09/25 12:07:03;;;;;;;8.32;1.60;;;;;;;12.75;100.00;98533.72;4751445;30;20118;-92
2022/09/25 12:10:04;;;;;;;6.85;1.40;;;;;;;12.70;100.00;98533.81;4749837;30;20536;-93
2022/09/25 12:13:07;;;;;;;10.13;1.83;;;;;;;12.53;100.00;98533.31;4756305;30;20397;-92
2022/09/25 12:16:07;;;;;;;10.80;1.98;;;;;;;12.52;100.00;98542.91;4733020;30;20036;-92
2022/09/25 12:19:04;;;;;;;8.02;1.60;;;;;;;12.45;100.00;98523.84;4751540;30;20040;-93
2022/09/25 12:21:45;;;;;;;8.20;1.83;;;;;;;12.46;100.00;98528.19;4751772;30;20462;-90
2022/09/25 12:24:30;;;;;;;9.43;1.88;;;;;;;12.66;100.00;98513.00;4738129;30;20051;-93
2022/09/25 12:27:04;;;;;;;10.15;1.80;;;;;;;13.09;100.00;98512.88;4746276;30;20123;-93
2022/09/25 12:29:45;;;;;;;8.75;1.83;;;;;;;13.02;100.00;98492.97;4743550;30;20775;-91
2022/09/25 12:32:20;;;;;;;13.35;1.92;;;;;;;12.81;100.00;98492.56;4752098;30;20032;-90
2022/09/25 12:35:06;;;;;;;7.85;1.70;;;;;;;13.27;100.00;98487.16;4755235;30;20098;-91
2022/09/25 12:37:42;;;;;;;8.07;1.55;;;;;;;12.91;100.00;98482.75;4733423;30;20052;-91
2022/09/25 12:40:49;;;;;;;8.65;1.77;;;;;;;13.08;100.00;98482.38;4746057;30;20040;-91
2022/09/25 12:44:00;;;;;;;6.57;1.67;;;;;;;13.13;100.00;98471.78;4720046;30;20139;-92
2022/09/25 12:46:48;;;;;;;12.73;1.88;;;;;;;13.31;100.00;98476.56;4705459;30;20052;-92
2022/09/25 12:49:39;;;;;;;12.32;1.65;;;;;;;12.75;100.00;98487.47;4701888;30;20486;-91
2022/09/25 12:52:15;;;;;;;7.38;1.77;;;;;;;13.02;100.00;98469.41;4703723;30;20124;-93
2022/09/25 12:55:06;;;;;;;10.35;2.10;;;;;;;13.02;100.00;98476.41;4704302;30;20041;-91
2022/09/25 12:58:16;;;;;;;9.35;1.98;;;;;;;12.91;100.00;98477.50;4719866;30;20048;-92
2022/09/25 13:00:53;;;;;;;8.38;1.92;;;;;;;12.70;100.00;98465.78;4707504;30;20045;-92
2022/09/25 13:04:03;;;;;;;9.00;1.73;;;;;;;12.68;100.00;98467.59;4714022;30;20144;-92
2022/09/25 13:06:59;;;;;;;11.00;1.90;;;;;;;12.90;100.00;98461.84;4723564;30;20150;-92
2022/09/25 13:09:45;;;;;;;8.48;1.80;;;;;;;12.82;100.00;98462.03;4696624;30;20998;-91
2022/09/25 13:12:35;;;;;;;11.38;1.92;;;;;;;12.66;100.00;98464.13;4718955;30;20464;-89
2022/09/25 13:15:11;;;;;;;7.95;1.83;;;;;;;12.63;100.00;98466.81;4703854;30;20958;-90
2022/09/25 13:17:41;;;;;;;11.15;2.10;;;;;;;12.53;100.00;98460.94;4724758;30;20152;-92
2022/09/25 13:20:32;;;;;;;9.27;1.85;;;;;;;12.54;100.00;98467.88;4746204;30;20108;-90
2022/09/25 13:23:08;;;;;;;7.15;2.10;;;;;;;12.61;100.00;98456.41;4757219;30;20060;-92
2022/09/25 13:25:58;;;;;;;11.90;1.75;;;;;;;13.23;100.00;98441.84;4750871;30;20032;-91
2022/09/25 13:28:33;;;;;;;14.13;2.30;;;;;;;13.37;100.00;98432.81;4764574;30;20052;-92
2022/09/25 13:31:11;;;;;;;9.73;2.17;;;;;;;13.02;100.00;98414.44;4762851;30;20028;-91
2022/09/25 13:34:02;;;;;;;10.13;1.90;;;;;;;13.48;100.00;98409.84;4731676;30;20565;-91
2022/09/25 13:36:37;;;;;;;8.60;1.75;;;;;;;13.22;100.00;98400.88;4748496;30;20060;-92
2022/09/25 13:42:46;;;;;;;7.72;1.77;;;;;;;13.14;100.00;98394.97;4753335;30;20067;-91
2022/09/25 13:45:24;;;;;;;9.52;1.95;;;;;;;13.37;100.00;98398.78;4730876;30;20048;-91
2022/09/25 13:48:00;;;;;;;9.40;1.73;;;;;;;13.54;100.00;98388.72;4732810;30;20118;-91